createdAt,value
2023-02-19T00:00:33.462Z,92.2
2023-02-19T00:03:29.171Z,92.2
2023-02-19T00:06:29.509Z,92.2
2023-02-19T00:09:32.948Z,92.3
2023-02-19T00:12:28.744Z,92.3
2023-02-19T00:15:29.745Z,92.3
2023-02-19T00:18:32.124Z,92.4
2023-02-19T00:21:28.969Z,92.4
2023-02-19T00:24:35.338Z,92.4
2023-02-19T00:27:29.621Z,92.4
2023-02-19T00:30:32.214Z,92.4
2023-02-19T00:33:29.247Z,92.4
2023-02-19T00:36:28.342Z,92.4
2023-02-19T00:39:32.600Z,92.5
2023-02-19T00:42:28.905Z,92.5
2023-02-19T00:45:28.972Z,92.5
2023-02-19T00:48:32.358Z,92.5
2023-02-19T00:51:28.829Z,92.5
2023-02-19T00:54:29.178Z,92.5
2023-02-19T00:57:32.577Z,92.4
2023-02-19T01:00:29.212Z,92.4
2023-02-19T01:03:29.300Z,92.4
2023-02-19T01:06:29.283Z,92.4
2023-02-19T01:09:32.778Z,92.4
2023-02-19T01:12:28.808Z,92.4
2023-02-19T01:15:28.973Z,92.4
2023-02-19T01:18:32.326Z,92.3
2023-02-19T01:21:28.833Z,92.3
2023-02-19T01:24:28.637Z,92.3
2023-02-19T01:27:31.791Z,92.3
2023-02-19T01:30:28.817Z,92.3
2023-02-19T01:33:29.045Z,92.3
2023-02-19T01:36:32.321Z,92.2
2023-02-19T01:39:29.056Z,92.2
2023-02-19T01:42:28.885Z,92.2
2023-02-19T01:45:28.922Z,92.2
2023-02-19T01:48:32.147Z,92.1
2023-02-19T01:51:28.821Z,92.1
2023-02-19T01:54:28.774Z,92.1
2023-02-19T01:57:31.942Z,92.1
2023-02-19T02:00:29.051Z,92.1
2023-02-19T02:03:29.223Z,92.1
2023-02-19T02:06:32.413Z,92.1
2023-02-19T02:09:29.551Z,92.1
2023-02-19T02:12:28.898Z,92.1
2023-02-19T02:15:32.294Z,92.1
2023-02-19T02:18:29.369Z,92.1
2023-02-19T02:21:28.745Z,92.1
2023-02-19T02:24:29.045Z,92.1
2023-02-19T02:27:32.464Z,92.1
2023-02-19T02:30:29.554Z,92.1
2023-02-19T02:33:29.310Z,92.1
2023-02-19T02:36:32.567Z,92
2023-02-19T02:39:29.249Z,92
2023-02-19T02:42:29.299Z,92
2023-02-19T02:45:32.576Z,92
2023-02-19T02:48:28.405Z,92
2023-02-19T02:51:28.780Z,92
2023-02-19T02:54:32.301Z,92
2023-02-19T02:57:28.909Z,92
2023-02-19T03:00:29.885Z,92
2023-02-19T03:03:32.120Z,91.9
2023-02-19T03:06:29.051Z,91.9
2023-02-19T03:09:29.534Z,91.9
2023-02-19T03:12:28.818Z,91.9
2023-02-19T03:15:32.249Z,91.9
2023-02-19T03:18:29.034Z,91.9
2023-02-19T03:21:29.237Z,91.9
2023-02-19T03:24:32.682Z,91.8
2023-02-19T03:27:29.301Z,91.8
2023-02-19T03:30:29.753Z,91.8
2023-02-19T03:33:32.417Z,91.8
2023-02-19T03:36:29.599Z,91.8
2023-02-19T03:39:29.107Z,91.8
2023-02-19T03:42:32.388Z,91.7
2023-02-19T03:45:28.961Z,91.7
2023-02-19T03:48:29.073Z,91.7
2023-02-19T03:51:29.395Z,91.7
2023-02-19T03:54:32.651Z,91.7
2023-02-19T03:57:28.695Z,91.7
2023-02-19T04:00:29.769Z,91.7
2023-02-19T04:03:32.193Z,91.7
2023-02-19T04:06:29.043Z,91.7
2023-02-19T04:09:29.247Z,91.7
2023-02-19T04:12:32.402Z,91.6
2023-02-19T04:15:29.100Z,91.6
2023-02-19T04:18:29.260Z,91.6
2023-02-19T04:21:31.738Z,91.6
2023-02-19T04:24:28.493Z,91.6
2023-02-19T04:27:28.660Z,91.6
2023-02-19T04:30:30.260Z,91.6
2023-02-19T04:33:31.846Z,91.6
2023-02-19T04:36:29.447Z,91.6
2023-02-19T04:39:28.740Z,91.6
2023-02-19T04:42:32.045Z,91.6
2023-02-19T04:45:28.585Z,91.6
2023-02-19T04:48:28.738Z,91.6
2023-02-19T04:51:32.310Z,91.5
2023-02-19T04:54:29.038Z,91.5
2023-02-19T04:57:28.731Z,91.5
2023-02-19T05:02:30.595Z,91.6
2023-02-19T05:03:29.078Z,91.6
2023-02-19T05:06:29.130Z,91.6
2023-02-19T05:09:29.369Z,91.6
2023-02-19T05:12:31.836Z,91.6
2023-02-19T05:15:28.608Z,91.6
2023-02-19T05:18:28.765Z,91.6
2023-02-19T05:21:32.426Z,91.6
2023-02-19T05:24:29.201Z,91.6
2023-02-19T05:27:28.519Z,91.6
2023-02-19T05:30:32.421Z,91.6
2023-02-19T05:33:29.304Z,91.6
2023-02-19T05:36:29.324Z,91.6
2023-02-19T05:39:31.894Z,91.6
2023-02-19T05:42:28.636Z,91.6
2023-02-19T05:45:28.594Z,91.6
2023-02-19T05:48:28.731Z,91.6
2023-02-19T05:51:32.123Z,91.6
2023-02-19T05:54:28.993Z,91.6
2023-02-19T05:57:29.136Z,91.6
2023-02-19T06:00:32.701Z,91.7
2023-02-19T06:03:29.296Z,91.7
2023-02-19T06:06:29.443Z,91.7
2023-02-19T06:09:32.045Z,91.7
2023-02-19T06:12:29.019Z,91.7
2023-02-19T06:15:29.282Z,91.7
2023-02-19T06:18:31.709Z,91.7
2023-02-19T06:21:28.714Z,91.7
2023-02-19T06:24:28.862Z,91.7
2023-02-19T06:27:29.354Z,91.7
2023-02-19T06:30:32.386Z,91.7
2023-02-19T06:33:28.625Z,91.7
2023-02-19T06:36:28.906Z,91.7
2023-02-19T06:39:32.501Z,91.7
2023-02-19T06:42:29.628Z,91.7
2023-02-19T06:45:28.820Z,91.7
2023-02-19T06:48:32.168Z,91.8
2023-02-19T06:51:28.996Z,91.8
2023-02-19T06:54:29.364Z,91.8
2023-02-19T06:57:32.096Z,91.8
2023-02-19T07:00:28.771Z,91.8
2023-02-19T07:03:28.902Z,91.8
2023-02-19T07:06:29.260Z,91.8
2023-02-19T07:09:32.237Z,91.8
2023-02-19T07:12:29.382Z,91.8
2023-02-19T07:15:29.583Z,91.8
2023-02-19T07:18:32.034Z,91.9
2023-02-19T07:21:29.163Z,91.9
2023-02-19T07:24:29.210Z,91.9
2023-02-19T07:27:32.530Z,91.9
2023-02-19T07:30:28.901Z,91.9
2023-02-19T07:33:29.164Z,91.9
2023-02-19T07:36:32.780Z,92
2023-02-19T07:39:28.933Z,92
2023-02-19T07:42:29.180Z,92
2023-02-19T07:45:29.537Z,92
2023-02-19T07:48:32.255Z,92
2023-02-19T07:51:29.295Z,92
2023-02-19T07:54:28.757Z,92
2023-02-19T07:57:32.629Z,92.1
2023-02-19T08:00:30.873Z,92.1
2023-02-19T08:03:29.677Z,92.1
2023-02-19T08:06:32.800Z,92
2023-02-19T08:09:29.192Z,92
2023-02-19T08:12:29.378Z,92
2023-02-19T08:15:32.308Z,91.9
2023-02-19T08:18:29.417Z,91.9
2023-02-19T08:21:28.830Z,91.9
2023-02-19T08:24:28.945Z,91.9
2023-02-19T08:27:32.570Z,91.6
2023-02-19T08:30:30.159Z,91.6
2023-02-19T08:33:29.026Z,91.6
2023-02-19T08:36:31.798Z,90.7
2023-02-19T08:39:29.180Z,90.7
2023-02-19T08:42:29.574Z,90.7
2023-02-19T08:45:32.010Z,88.7
2023-02-19T08:48:29.131Z,88.7
2023-02-19T08:51:29.280Z,88.7
2023-02-19T08:54:31.923Z,85.4
2023-02-19T08:57:28.894Z,85.4
2023-02-19T09:00:29.340Z,85.4
2023-02-19T09:03:28.932Z,85.4
2023-02-19T09:06:32.619Z,81.9
2023-02-19T09:09:28.848Z,81.9
2023-02-19T09:12:29.428Z,81.9
2023-02-19T09:15:32.253Z,78
2023-02-19T09:18:29.520Z,78
2023-02-19T09:21:28.732Z,78
2023-02-19T09:24:32.504Z,73.8
2023-02-19T09:27:29.428Z,73.8
2023-02-19T09:30:29.351Z,73.8
2023-02-19T09:33:32.199Z,69.1
2023-02-19T09:36:29.072Z,69.1
2023-02-19T09:39:29.482Z,69.1
2023-02-19T09:42:28.946Z,69.1
2023-02-19T09:45:32.607Z,64
2023-02-19T09:48:28.443Z,64
2023-02-19T09:51:28.556Z,64
2023-02-19T09:54:32.257Z,59
2023-02-19T09:57:28.881Z,59
2023-02-19T10:00:29.282Z,59
2023-02-19T10:03:32.791Z,54.7
2023-02-19T10:06:28.722Z,54.7
2023-02-19T10:09:29.968Z,54.7
2023-02-19T10:12:32.510Z,51.6
2023-02-19T10:15:28.770Z,51.6
2023-02-19T10:18:29.137Z,51.6
2023-02-19T10:21:29.394Z,51.6
2023-02-19T10:24:32.543Z,48.2
2023-02-19T10:27:29.532Z,48.2
2023-02-19T10:30:29.000Z,48.2
2023-02-19T10:33:31.987Z,45.1
2023-02-19T10:36:32.919Z,45.1
2023-02-19T10:39:29.462Z,45.1
2023-02-19T10:42:32.391Z,42.3
2023-02-19T10:45:29.374Z,42.3
2023-02-19T10:48:29.514Z,42.3
2023-02-19T10:51:32.736Z,39.8
2023-02-19T10:54:28.825Z,39.8
2023-02-19T10:57:29.574Z,39.8
2023-02-19T11:00:29.332Z,39.8
2023-02-19T11:03:32.710Z,37.8
2023-02-19T11:06:28.931Z,37.8
2023-02-19T11:09:29.367Z,37.8
2023-02-19T11:12:32.871Z,36.6
2023-02-19T11:15:29.159Z,36.6
2023-02-19T11:18:29.575Z,36.6
2023-02-19T11:21:32.141Z,36.3
2023-02-19T11:24:29.285Z,36.3
2023-02-19T11:27:29.524Z,36.3
2023-02-19T11:30:36.740Z,36.4
2023-02-19T11:33:29.614Z,36.4
2023-02-19T11:36:31.337Z,36.4
2023-02-19T11:39:28.902Z,36.4
2023-02-19T11:42:33.374Z,37.3
2023-02-19T11:45:29.442Z,37.3
2023-02-19T11:48:30.742Z,37.3
2023-02-19T11:51:32.578Z,38.4
2023-02-19T11:54:29.816Z,38.4
2023-02-19T11:57:29.083Z,38.4
2023-02-19T12:00:32.766Z,39
2023-02-19T12:03:28.547Z,39
2023-02-19T12:06:28.892Z,39
2023-02-19T12:09:32.653Z,39.7
2023-02-19T12:12:28.801Z,39.7
2023-02-19T12:15:29.300Z,39.7
2023-02-19T12:18:29.494Z,39.7
2023-02-19T12:21:31.944Z,40
2023-02-19T12:24:28.888Z,40
2023-02-19T12:27:28.924Z,40
2023-02-19T12:30:33.265Z,40.4
2023-02-19T12:33:29.210Z,40.4
2023-02-19T12:36:29.512Z,40.4
2023-02-19T12:39:32.139Z,40.2
2023-02-19T12:42:29.180Z,40.2
2023-02-19T12:45:29.275Z,40.2
2023-02-19T12:48:31.857Z,39.9
2023-02-19T12:51:28.821Z,39.9
2023-02-19T12:54:29.287Z,39.9
2023-02-19T12:57:28.669Z,39.9
2023-02-19T13:00:32.342Z,39.4
2023-02-19T13:03:29.531Z,39.4
2023-02-19T13:06:29.087Z,39.4
2023-02-19T13:09:32.559Z,38.8
2023-02-19T13:12:29.483Z,38.8
2023-02-19T13:15:28.799Z,38.8
2023-02-19T13:18:32.427Z,39.4
2023-02-19T13:21:29.497Z,39.4
2023-02-19T13:24:29.106Z,39.4
2023-02-19T13:27:32.088Z,40.7
2023-02-19T13:30:29.482Z,40.7
2023-02-19T13:33:28.914Z,40.7
2023-02-19T13:36:29.175Z,40.7
2023-02-19T13:39:35.019Z,42.4
2023-02-19T13:42:28.986Z,42.4
2023-02-19T13:45:29.621Z,42.4
2023-02-19T13:48:32.605Z,44
2023-02-19T13:51:29.681Z,44
2023-02-19T13:54:29.223Z,44
2023-02-19T13:57:32.826Z,45.8
2023-02-19T14:00:29.994Z,45.8
2023-02-19T14:03:29.332Z,45.8
2023-02-19T14:06:32.630Z,47.7
2023-02-19T14:09:29.822Z,47.7
2023-02-19T14:12:29.391Z,47.7
2023-02-19T14:15:29.038Z,47.7
2023-02-19T14:18:33.909Z,49.5
2023-02-19T14:21:28.954Z,49.5
2023-02-19T14:24:29.104Z,49.5
2023-02-19T14:27:32.078Z,51.5
2023-02-19T14:30:30.244Z,51.5
2023-02-19T14:33:29.152Z,51.5
2023-02-19T14:36:31.916Z,52.7
2023-02-19T14:39:28.978Z,52.7
2023-02-19T14:42:29.160Z,52.7
2023-02-19T14:45:32.632Z,53.8
2023-02-19T14:48:28.790Z,53.8
2023-02-19T14:51:29.462Z,53.8
2023-02-19T14:54:28.970Z,53.8
2023-02-19T14:57:31.864Z,54.9
2023-02-19T15:00:28.979Z,54.9
2023-02-19T15:03:28.615Z,54.9
2023-02-19T15:06:32.011Z,55.7
2023-02-19T15:09:29.230Z,55.7
2023-02-19T15:12:29.443Z,55.7
2023-02-19T15:15:32.341Z,56.9
2023-02-19T15:18:29.459Z,56.9
2023-02-19T15:21:29.080Z,56.9
2023-02-19T15:24:32.767Z,57.9
2023-02-19T15:27:29.159Z,57.9
2023-02-19T15:30:29.626Z,57.9
2023-02-19T15:33:29.556Z,57.9
2023-02-19T15:36:32.088Z,58.9
2023-02-19T15:39:29.571Z,58.9
2023-02-19T15:42:28.978Z,58.9
2023-02-19T15:45:32.527Z,59.9
2023-02-19T15:48:28.969Z,59.9
2023-02-19T15:51:29.390Z,59.9
2023-02-19T15:54:32.838Z,61
2023-02-19T15:57:29.059Z,61
2023-02-19T16:00:29.678Z,61
2023-02-19T16:03:32.432Z,62
2023-02-19T16:06:29.387Z,62
2023-02-19T16:09:28.917Z,62
2023-02-19T16:12:29.253Z,62
2023-02-19T16:15:32.167Z,63.1
2023-02-19T16:18:29.106Z,63.1
2023-02-19T16:21:28.892Z,63.1
2023-02-19T21:06:33.047Z,66.3
2023-02-19T21:09:29.053Z,66.3
2023-02-19T21:12:29.400Z,66.3
2023-02-19T21:15:32.015Z,69.3
2023-02-19T21:18:29.109Z,69.3
2023-02-19T21:21:29.306Z,69.3
2023-02-19T21:24:28.523Z,69.3
2023-02-19T21:27:31.910Z,72.1
2023-02-19T21:30:28.772Z,72.1
2023-02-19T21:33:29.233Z,72.1
2023-02-19T21:36:31.828Z,74.9
2023-02-19T21:39:29.144Z,74.9
2023-02-19T21:42:29.262Z,74.9
2023-02-19T21:45:33.027Z,77.5
2023-02-19T21:48:28.736Z,77.5
2023-02-19T21:51:28.832Z,77.5
2023-02-19T21:54:33.018Z,80
2023-02-19T21:57:29.221Z,80
2023-02-19T22:00:29.730Z,80
2023-02-19T22:03:29.472Z,80
2023-02-19T22:06:32.964Z,82.3
2023-02-19T22:09:29.425Z,82.3
2023-02-19T22:12:28.623Z,82.3
2023-02-19T22:15:32.307Z,84.7
2023-02-19T22:18:29.280Z,84.7
2023-02-19T22:21:28.889Z,84.7
2023-02-19T22:24:32.356Z,84.7
2023-02-19T22:27:29.604Z,84.7
2023-02-19T22:30:29.927Z,84.7
2023-02-19T22:33:32.834Z,84.7
2023-02-19T22:36:28.984Z,84.7
2023-02-19T22:39:29.215Z,84.7
2023-02-19T22:42:29.528Z,84.7
2023-02-19T22:45:32.480Z,84.8
2023-02-19T22:48:30.918Z,84.8
2023-02-19T22:51:29.674Z,84.8
2023-02-19T22:54:32.635Z,84.8
2023-02-19T22:57:28.818Z,84.8
2023-02-19T23:00:32.360Z,84.8
2023-02-19T23:03:32.032Z,84.9
2023-02-19T23:06:29.147Z,84.9
2023-02-19T23:09:28.598Z,84.9
2023-02-19T23:12:31.788Z,85
2023-02-19T23:15:28.752Z,85
2023-02-19T23:18:28.839Z,85
2023-02-19T23:21:29.001Z,85
2023-02-19T23:24:32.496Z,85.1
2023-02-19T23:27:28.729Z,85.1
2023-02-19T23:30:29.285Z,85.1
2023-02-19T23:33:32.329Z,85.2
2023-02-19T23:36:29.084Z,85.2
2023-02-19T23:39:28.844Z,85.2
2023-02-19T23:42:32.529Z,85.3
2023-02-19T23:45:29.478Z,85.3
2023-02-19T23:48:28.711Z,85.3
2023-02-19T23:51:32.212Z,85.3
2023-02-19T23:54:29.463Z,85.3
2023-02-19T23:57:28.531Z,85.3
